sensor_id;sensor_type;location;lat;lon;timestamp;pressure;altitude;pressure_sealevel;temperature
68510;BMP180;55512;50.102;19.958;2022-07-06T00:01:34;98790.80;;;17.84
68510;BMP180;55512;50.102;19.958;2022-07-06T00:04:02;98791.40;;;17.90
68510;BMP180;55512;50.102;19.958;2022-07-06T00:06:28;98789.20;;;17.90
68510;BMP180;55512;50.102;19.958;2022-07-06T00:08:54;98791.20;;;17.90
68510;BMP180;55512;50.102;19.958;2022-07-06T00:11:20;98792.60;;;17.90
68510;BMP180;55512;50.102;19.958;2022-07-06T00:13:46;98792.00;;;18.00
68510;BMP180;55512;50.102;19.958;2022-07-06T00:16:12;98791.20;;;18.00
68510;BMP180;55512;50.102;19.958;2022-07-06T00:18:38;98793.00;;;18.10
68510;BMP180;55512;50.102;19.958;2022-07-06T00:21:04;98790.00;;;18.30
68510;BMP180;55512;50.102;19.958;2022-07-06T00:23:30;98793.40;;;18.26
68510;BMP180;55512;50.102;19.958;2022-07-06T00:25:55;98788.80;;;18.30
68510;BMP180;55512;50.102;19.958;2022-07-06T00:28:21;98791.00;;;18.30
68510;BMP180;55512;50.102;19.958;2022-07-06T00:30:47;98791.80;;;18.30
68510;BMP180;55512;50.102;19.958;2022-07-06T00:33:12;98794.00;;;18.28
68510;BMP180;55512;50.102;19.958;2022-07-06T00:35:38;98789.80;;;18.30
68510;BMP180;55512;50.102;19.958;2022-07-06T00:38:04;98782.40;;;18.30
68510;BMP180;55512;50.102;19.958;2022-07-06T00:40:30;98783.60;;;18.16
68510;BMP180;55512;50.102;19.958;2022-07-06T00:42:56;98779.80;;;18.08
68510;BMP180;55512;50.102;19.958;2022-07-06T00:45:22;98774.20;;;18.00
68510;BMP180;55512;50.102;19.958;2022-07-06T00:47:48;98770.60;;;17.90
68510;BMP180;55512;50.102;19.958;2022-07-06T00:50:16;98769.80;;;17.90
68510;BMP180;55512;50.102;19.958;2022-07-06T00:52:54;98767.40;;;17.80
68510;BMP180;55512;50.102;19.958;2022-07-06T00:55:25;98772.60;;;17.90
68510;BMP180;55512;50.102;19.958;2022-07-06T00:57:52;98778.00;;;18.00
68510;BMP180;55512;50.102;19.958;2022-07-06T01:00:22;98775.00;;;18.02
68510;BMP180;55512;50.102;19.958;2022-07-06T01:02:49;98775.00;;;18.10
68510;BMP180;55512;50.102;19.958;2022-07-06T01:05:16;98772.80;;;18.18
68510;BMP180;55512;50.102;19.958;2022-07-06T01:07:45;98771.40;;;18.20
68510;BMP180;55512;50.102;19.958;2022-07-06T01:10:13;98771.80;;;18.20
68510;BMP180;55512;50.102;19.958;2022-07-06T01:12:41;98772.60;;;18.20
68510;BMP180;55512;50.102;19.958;2022-07-06T01:15:20;98770.60;;;18.30
68510;BMP180;55512;50.102;19.958;2022-07-06T01:17:47;98777.20;;;18.30
68510;BMP180;55512;50.102;19.958;2022-07-06T01:20:18;98780.60;;;18.40
68510;BMP180;55512;50.102;19.958;2022-07-06T01:22:47;98777.40;;;18.40
68510;BMP180;55512;50.102;19.958;2022-07-06T01:25:14;98778.20;;;18.50
68510;BMP180;55512;50.102;19.958;2022-07-06T01:27:41;98781.60;;;18.50
68510;BMP180;55512;50.102;19.958;2022-07-06T01:30:11;98778.80;;;18.60
68510;BMP180;55512;50.102;19.958;2022-07-06T01:32:38;98779.40;;;18.60
68510;BMP180;55512;50.102;19.958;2022-07-06T01:35:07;98776.20;;;18.70
68510;BMP180;55512;50.102;19.958;2022-07-06T01:37:34;98777.60;;;18.70
68510;BMP180;55512;50.102;19.958;2022-07-06T01:40:03;98784.40;;;18.70
68510;BMP180;55512;50.102;19.958;2022-07-06T01:42:29;98790.60;;;18.70
68510;BMP180;55512;50.102;19.958;2022-07-06T01:44:55;98790.60;;;18.70
68510;BMP180;55512;50.102;19.958;2022-07-06T01:47:21;98790.20;;;18.70
68510;BMP180;55512;50.102;19.958;2022-07-06T01:49:47;98791.60;;;18.70
68510;BMP180;55512;50.102;19.958;2022-07-06T01:52:12;98786.00;;;18.70
68510;BMP180;55512;50.102;19.958;2022-07-06T01:54:38;98782.60;;;18.80
68510;BMP180;55512;50.102;19.958;2022-07-06T01:57:05;98785.80;;;18.80
68510;BMP180;55512;50.102;19.958;2022-07-06T01:59:30;98787.60;;;18.80
68510;BMP180;55512;50.102;19.958;2022-07-06T02:01:56;98792.00;;;18.74
68510;BMP180;55512;50.102;19.958;2022-07-06T02:04:22;98793.80;;;18.70
68510;BMP180;55512;50.102;19.958;2022-07-06T02:06:47;98796.80;;;18.76
68510;BMP180;55512;50.102;19.958;2022-07-06T02:09:13;98792.60;;;18.80
68510;BMP180;55512;50.102;19.958;2022-07-06T02:11:39;98792.00;;;18.80
68510;BMP180;55512;50.102;19.958;2022-07-06T02:14:05;98784.20;;;18.80
68510;BMP180;55512;50.102;19.958;2022-07-06T02:16:30;98782.80;;;18.70
68510;BMP180;55512;50.102;19.958;2022-07-06T02:18:56;98784.40;;;18.70
68510;BMP180;55512;50.102;19.958;2022-07-06T02:21:22;98781.00;;;18.70
68510;BMP180;55512;50.102;19.958;2022-07-06T02:23:48;98781.40;;;18.50
68510;BMP180;55512;50.102;19.958;2022-07-06T02:26:13;98783.80;;;18.48
68510;BMP180;55512;50.102;19.958;2022-07-06T02:28:39;98782.00;;;18.40
68510;BMP180;55512;50.102;19.958;2022-07-06T02:31:05;98785.80;;;18.40
68510;BMP180;55512;50.102;19.958;2022-07-06T02:33:30;98789.00;;;18.30
68510;BMP180;55512;50.102;19.958;2022-07-06T02:35:56;98790.80;;;18.30
68510;BMP180;55512;50.102;19.958;2022-07-06T02:38:22;98789.00;;;18.30
68510;BMP180;55512;50.102;19.958;2022-07-06T02:40:47;98793.80;;;18.30
68510;BMP180;55512;50.102;19.958;2022-07-06T02:43:13;98791.80;;;18.30
68510;BMP180;55512;50.102;19.958;2022-07-06T02:45:39;98792.40;;;18.28
68510;BMP180;55512;50.102;19.958;2022-07-06T02:48:05;98786.00;;;18.20
68510;BMP180;55512;50.102;19.958;2022-07-06T02:50:30;98795.20;;;18.20
68510;BMP180;55512;50.102;19.958;2022-07-06T02:52:56;98792.20;;;18.20
68510;BMP180;55512;50.102;19.958;2022-07-06T02:55:24;98795.20;;;18.20
68510;BMP180;55512;50.102;19.958;2022-07-06T02:57:49;98800.20;;;18.20
68510;BMP180;55512;50.102;19.958;2022-07-06T03:00:16;98801.40;;;18.28
68510;BMP180;55512;50.102;19.958;2022-07-06T03:02:42;98806.00;;;18.20
68510;BMP180;55512;50.102;19.958;2022-07-06T03:05:08;98804.40;;;18.10
68510;BMP180;55512;50.102;19.958;2022-07-06T03:07:34;98794.60;;;18.10
68510;BMP180;55512;50.102;19.958;2022-07-06T03:09:59;98800.20;;;18.00
68510;BMP180;55512;50.102;19.958;2022-07-06T03:12:25;98801.20;;;17.90
68510;BMP180;55512;50.102;19.958;2022-07-06T03:14:51;98804.20;;;17.88
68510;BMP180;55512;50.102;19.958;2022-07-06T03:17:16;98806.20;;;17.90
68510;BMP180;55512;50.102;19.958;2022-07-06T03:19:42;98798.80;;;17.90
68510;BMP180;55512;50.102;19.958;2022-07-06T03:22:08;98798.20;;;17.90
68510;BMP180;55512;50.102;19.958;2022-07-06T03:24:34;98799.00;;;17.90
68510;BMP180;55512;50.102;19.958;2022-07-06T03:26:59;98799.20;;;17.90
68510;BMP180;55512;50.102;19.958;2022-07-06T03:29:25;98802.80;;;17.98
68510;BMP180;55512;50.102;19.958;2022-07-06T03:31:51;98799.60;;;18.00
68510;BMP180;55512;50.102;19.958;2022-07-06T03:34:16;98798.40;;;18.00
68510;BMP180;55512;50.102;19.958;2022-07-06T03:36:42;98801.40;;;18.10
68510;BMP180;55512;50.102;19.958;2022-07-06T03:39:08;98808.60;;;18.00
68510;BMP180;55512;50.102;19.958;2022-07-06T03:41:34;98816.20;;;18.10
68510;BMP180;55512;50.102;19.958;2022-07-06T03:43:59;98818.00;;;18.10
68510;BMP180;55512;50.102;19.958;2022-07-06T03:46:25;98820.40;;;18.10
68510;BMP180;55512;50.102;19.958;2022-07-06T03:48:51;98823.60;;;18.20
68510;BMP180;55512;50.102;19.958;2022-07-06T03:51:17;98827.00;;;18.20
68510;BMP180;55512;50.102;19.958;2022-07-06T03:53:43;98830.20;;;18.28
68510;BMP180;55512;50.102;19.958;2022-07-06T03:56:09;98824.60;;;18.20
68510;BMP180;55512;50.102;19.958;2022-07-06T03:58:57;98828.40;;;18.30
68510;BMP180;55512;50.102;19.958;2022-07-06T04:01:23;98829.40;;;18.30
68510;BMP180;55512;50.102;19.958;2022-07-06T04:03:50;98829.40;;;18.30
68510;BMP180;55512;50.102;19.958;2022-07-06T04:06:15;98832.00;;;18.20
68510;BMP180;55512;50.102;19.958;2022-07-06T04:08:41;98828.80;;;18.20
68510;BMP180;55512;50.102;19.958;2022-07-06T04:11:07;98824.60;;;18.10
68510;BMP180;55512;50.102;19.958;2022-07-06T04:13:33;98822.80;;;18.00
68510;BMP180;55512;50.102;19.958;2022-07-06T04:15:59;98824.20;;;18.00
68510;BMP180;55512;50.102;19.958;2022-07-06T04:18:25;98828.40;;;18.00
68510;BMP180;55512;50.102;19.958;2022-07-06T04:20:51;98829.80;;;18.10
68510;BMP180;55512;50.102;19.958;2022-07-06T04:23:17;98826.20;;;18.18
68510;BMP180;55512;50.102;19.958;2022-07-06T04:25:43;98830.20;;;18.20
68510;BMP180;55512;50.102;19.958;2022-07-06T04:28:08;98831.80;;;18.20
68510;BMP180;55512;50.102;19.958;2022-07-06T04:30:34;98834.20;;;18.30
68510;BMP180;55512;50.102;19.958;2022-07-06T04:33:00;98837.40;;;18.30
68510;BMP180;55512;50.102;19.958;2022-07-06T04:35:25;98830.60;;;18.30
68510;BMP180;55512;50.102;19.958;2022-07-06T04:37:51;98840.20;;;18.20
68510;BMP180;55512;50.102;19.958;2022-07-06T04:40:17;98842.00;;;18.16
68510;BMP180;55512;50.102;19.958;2022-07-06T04:42:42;98852.40;;;18.20
68510;BMP180;55512;50.102;19.958;2022-07-06T04:45:09;98849.40;;;18.20
68510;BMP180;55512;50.102;19.958;2022-07-06T04:47:36;98856.00;;;18.10
68510;BMP180;55512;50.102;19.958;2022-07-06T04:50:03;98863.00;;;18.04
68510;BMP180;55512;50.102;19.958;2022-07-06T04:52:29;98868.20;;;18.00
68510;BMP180;55512;50.102;19.958;2022-07-06T04:54:55;98867.00;;;18.10
68510;BMP180;55512;50.102;19.958;2022-07-06T04:57:21;98873.80;;;18.20
68510;BMP180;55512;50.102;19.958;2022-07-06T04:59:47;98875.40;;;18.30
68510;BMP180;55512;50.102;19.958;2022-07-06T05:02:13;98880.00;;;18.32
68510;BMP180;55512;50.102;19.958;2022-07-06T05:04:39;98883.40;;;18.40
68510;BMP180;55512;50.102;19.958;2022-07-06T05:07:04;98889.40;;;18.50
68510;BMP180;55512;50.102;19.958;2022-07-06T05:09:30;98895.00;;;18.54
68510;BMP180;55512;50.102;19.958;2022-07-06T05:11:56;98897.60;;;18.54
68510;BMP180;55512;50.102;19.958;2022-07-06T05:14:22;98894.40;;;18.60
68510;BMP180;55512;50.102;19.958;2022-07-06T05:16:47;98888.80;;;18.68
68510;BMP180;55512;50.102;19.958;2022-07-06T05:19:13;98891.20;;;18.70
68510;BMP180;55512;50.102;19.958;2022-07-06T05:21:39;98891.00;;;18.80
68510;BMP180;55512;50.102;19.958;2022-07-06T05:24:05;98897.20;;;19.08
68510;BMP180;55512;50.102;19.958;2022-07-06T05:26:30;98896.80;;;19.26
68510;BMP180;55512;50.102;19.958;2022-07-06T05:28:56;98897.00;;;19.40
68510;BMP180;55512;50.102;19.958;2022-07-06T05:31:21;98903.60;;;19.60
68510;BMP180;55512;50.102;19.958;2022-07-06T05:33:47;98903.20;;;19.70
68510;BMP180;55512;50.102;19.958;2022-07-06T05:36:13;98902.80;;;19.94
68510;BMP180;55512;50.102;19.958;2022-07-06T05:38:39;98900.80;;;20.04
68510;BMP180;55512;50.102;19.958;2022-07-06T05:41:04;98904.20;;;20.10
68510;BMP180;55512;50.102;19.958;2022-07-06T05:43:30;98907.00;;;20.00
68510;BMP180;55512;50.102;19.958;2022-07-06T05:45:56;98904.20;;;19.92
68510;BMP180;55512;50.102;19.958;2022-07-06T05:48:21;98903.20;;;19.90
68510;BMP180;55512;50.102;19.958;2022-07-06T05:51:06;98897.40;;;19.90
68510;BMP180;55512;50.102;19.958;2022-07-06T05:53:32;98901.80;;;19.84
68510;BMP180;55512;50.102;19.958;2022-07-06T05:55:58;98906.00;;;19.88
68510;BMP180;55512;50.102;19.958;2022-07-06T05:58:23;98901.00;;;19.80
68510;BMP180;55512;50.102;19.958;2022-07-06T06:00:51;98908.00;;;19.84
68510;BMP180;55512;50.102;19.958;2022-07-06T06:03:17;98909.80;;;19.90
68510;BMP180;55512;50.102;19.958;2022-07-06T06:05:42;98907.60;;;19.90
68510;BMP180;55512;50.102;19.958;2022-07-06T06:08:08;98906.80;;;20.00
68510;BMP180;55512;50.102;19.958;2022-07-06T06:10:34;98911.80;;;20.10
68510;BMP180;55512;50.102;19.958;2022-07-06T06:13:00;98910.00;;;20.20
68510;BMP180;55512;50.102;19.958;2022-07-06T06:15:26;98903.40;;;20.30
68510;BMP180;55512;50.102;19.958;2022-07-06T06:17:52;98889.80;;;20.40
68510;BMP180;55512;50.102;19.958;2022-07-06T06:20:17;98893.60;;;20.40
68510;BMP180;55512;50.102;19.958;2022-07-06T06:22:51;98889.60;;;20.40
68510;BMP180;55512;50.102;19.958;2022-07-06T06:25:38;98895.60;;;20.30
68510;BMP180;55512;50.102;19.958;2022-07-06T06:28:07;98895.40;;;20.20
68510;BMP180;55512;50.102;19.958;2022-07-06T06:30:34;98899.80;;;20.30
68510;BMP180;55512;50.102;19.958;2022-07-06T06:33:12;98897.20;;;20.50
68510;BMP180;55512;50.102;19.958;2022-07-06T06:35:43;98913.00;;;20.60
68510;BMP180;55512;50.102;19.958;2022-07-06T06:38:09;98906.60;;;20.70
68510;BMP180;55512;50.102;19.958;2022-07-06T06:40:34;98912.40;;;20.80
68510;BMP180;55512;50.102;19.958;2022-07-06T06:43:00;98908.40;;;20.90
68510;BMP180;55512;50.102;19.958;2022-07-06T06:45:26;98924.80;;;21.10
68510;BMP180;55512;50.102;19.958;2022-07-06T06:47:51;98925.60;;;21.20
68510;BMP180;55512;50.102;19.958;2022-07-06T06:50:17;98922.00;;;21.30
68510;BMP180;55512;50.102;19.958;2022-07-06T06:52:43;98923.60;;;21.40
68510;BMP180;55512;50.102;19.958;2022-07-06T06:55:09;98931.00;;;21.52
68510;BMP180;55512;50.102;19.958;2022-07-06T06:57:35;98929.00;;;21.60
68510;BMP180;55512;50.102;19.958;2022-07-06T07:00:01;98928.20;;;21.70
68510;BMP180;55512;50.102;19.958;2022-07-06T07:02:27;98924.40;;;21.80
68510;BMP180;55512;50.102;19.958;2022-07-06T07:04:53;98919.60;;;21.90
68510;BMP180;55512;50.102;19.958;2022-07-06T07:07:19;98914.80;;;22.00
68510;BMP180;55512;50.102;19.958;2022-07-06T07:09:45;98919.40;;;22.00
68510;BMP180;55512;50.102;19.958;2022-07-06T07:12:11;98916.00;;;21.80
68510;BMP180;55512;50.102;19.958;2022-07-06T07:14:37;98912.20;;;21.70
68510;BMP180;55512;50.102;19.958;2022-07-06T07:17:04;98912.20;;;21.60
68510;BMP180;55512;50.102;19.958;2022-07-06T07:19:29;98914.20;;;21.60
68510;BMP180;55512;50.102;19.958;2022-07-06T07:21:55;98923.80;;;21.80
68510;BMP180;55512;50.102;19.958;2022-07-06T07:24:20;98926.20;;;22.00
68510;BMP180;55512;50.102;19.958;2022-07-06T07:26:46;98927.20;;;22.10
68510;BMP180;55512;50.102;19.958;2022-07-06T07:29:12;98926.00;;;22.22
68510;BMP180;55512;50.102;19.958;2022-07-06T07:31:37;98921.40;;;22.44
68510;BMP180;55512;50.102;19.958;2022-07-06T07:34:03;98920.80;;;22.48
68510;BMP180;55512;50.102;19.958;2022-07-06T07:36:28;98923.20;;;22.50
68510;BMP180;55512;50.102;19.958;2022-07-06T07:38:54;98934.80;;;22.60
68510;BMP180;55512;50.102;19.958;2022-07-06T07:41:20;98936.60;;;22.40
68510;BMP180;55512;50.102;19.958;2022-07-06T07:43:46;98940.40;;;22.20
68510;BMP180;55512;50.102;19.958;2022-07-06T07:46:11;98942.80;;;22.20
68510;BMP180;55512;50.102;19.958;2022-07-06T07:48:37;98938.00;;;22.20
68510;BMP180;55512;50.102;19.958;2022-07-06T07:51:03;98938.40;;;22.22
68510;BMP180;55512;50.102;19.958;2022-07-06T07:53:29;98943.80;;;22.30
68510;BMP180;55512;50.102;19.958;2022-07-06T07:55:54;98942.80;;;22.50
68510;BMP180;55512;50.102;19.958;2022-07-06T07:58:20;98943.40;;;22.70
68510;BMP180;55512;50.102;19.958;2022-07-06T08:00:45;98949.80;;;22.86
68510;BMP180;55512;50.102;19.958;2022-07-06T08:03:12;98951.60;;;23.00
68510;BMP180;55512;50.102;19.958;2022-07-06T08:05:37;98952.80;;;23.00
68510;BMP180;55512;50.102;19.958;2022-07-06T08:08:03;98961.00;;;23.10
68510;BMP180;55512;50.102;19.958;2022-07-06T08:10:30;98960.80;;;23.00
68510;BMP180;55512;50.102;19.958;2022-07-06T08:12:56;98960.20;;;23.10
68510;BMP180;55512;50.102;19.958;2022-07-06T08:15:22;98956.80;;;23.20
68510;BMP180;55512;50.102;19.958;2022-07-06T08:17:47;98953.00;;;23.40
68510;BMP180;55512;50.102;19.958;2022-07-06T08:20:13;98957.20;;;23.40
68510;BMP180;55512;50.102;19.958;2022-07-06T08:22:39;98960.40;;;23.40
68510;BMP180;55512;50.102;19.958;2022-07-06T08:25:06;98961.20;;;23.50
68510;BMP180;55512;50.102;19.958;2022-07-06T08:27:32;98960.20;;;23.56
68510;BMP180;55512;50.102;19.958;2022-07-06T08:29:58;98970.20;;;23.60
68510;BMP180;55512;50.102;19.958;2022-07-06T08:32:26;98959.20;;;23.74
68510;BMP180;55512;50.102;19.958;2022-07-06T08:34:51;98957.60;;;23.80
68510;BMP180;55512;50.102;19.958;2022-07-06T08:37:18;98953.00;;;23.90
68510;BMP180;55512;50.102;19.958;2022-07-06T08:39:45;98958.20;;;24.10
68510;BMP180;55512;50.102;19.958;2022-07-06T08:42:12;98958.80;;;24.10
68510;BMP180;55512;50.102;19.958;2022-07-06T08:44:42;98965.80;;;23.80
68510;BMP180;55512;50.102;19.958;2022-07-06T08:47:10;98964.80;;;23.50
68510;BMP180;55512;50.102;19.958;2022-07-06T08:49:36;98964.00;;;23.20
68510;BMP180;55512;50.102;19.958;2022-07-06T08:52:04;98961.80;;;22.90
68510;BMP180;55512;50.102;19.958;2022-07-06T08:54:30;98975.40;;;22.80
68510;BMP180;55512;50.102;19.958;2022-07-06T08:56:56;98987.00;;;22.64
68510;BMP180;55512;50.102;19.958;2022-07-06T08:59:22;98993.40;;;22.40
68510;BMP180;55512;50.102;19.958;2022-07-06T09:01:48;99014.40;;;22.04
68510;BMP180;55512;50.102;19.958;2022-07-06T09:04:17;99019.00;;;21.60
68510;BMP180;55512;50.102;19.958;2022-07-06T09:06:46;99020.80;;;20.92
68510;BMP180;55512;50.102;19.958;2022-07-06T09:09:24;99009.00;;;20.30
68510;BMP180;55512;50.102;19.958;2022-07-06T09:11:51;99010.00;;;19.96
68510;BMP180;55512;50.102;19.958;2022-07-06T09:14:17;99019.40;;;19.70
68510;BMP180;55512;50.102;19.958;2022-07-06T09:16:45;99025.20;;;19.50
68510;BMP180;55512;50.102;19.958;2022-07-06T09:19:12;99022.60;;;19.50
68510;BMP180;55512;50.102;19.958;2022-07-06T09:21:39;99027.00;;;19.40
68510;BMP180;55512;50.102;19.958;2022-07-06T09:24:10;99019.00;;;19.40
68510;BMP180;55512;50.102;19.958;2022-07-06T09:26:37;99006.80;;;19.40
68510;BMP180;55512;50.102;19.958;2022-07-06T09:29:04;99006.20;;;19.60
68510;BMP180;55512;50.102;19.958;2022-07-06T09:31:31;99004.60;;;19.80
68510;BMP180;55512;50.102;19.958;2022-07-06T09:34:00;99008.20;;;19.90
68510;BMP180;55512;50.102;19.958;2022-07-06T09:36:48;98991.80;;;20.10
68510;BMP180;55512;50.102;19.958;2022-07-06T09:39:28;98995.40;;;20.26
68510;BMP180;55512;50.102;19.958;2022-07-06T09:41:59;98985.20;;;20.30
68510;BMP180;55512;50.102;19.958;2022-07-06T09:46:57;98975.40;;;20.70
68510;BMP180;55512;50.102;19.958;2022-07-06T09:49:24;98988.60;;;21.00
68510;BMP180;55512;50.102;19.958;2022-07-06T09:51:55;98976.00;;;21.16
68510;BMP180;55512;50.102;19.958;2022-07-06T09:54:22;98979.40;;;21.20
68510;BMP180;55512;50.102;19.958;2022-07-06T09:56:49;98982.00;;;21.10
68510;BMP180;55512;50.102;19.958;2022-07-06T09:59:22;98981.40;;;21.10
68510;BMP180;55512;50.102;19.958;2022-07-06T10:01:52;98987.80;;;21.20
68510;BMP180;55512;50.102;19.958;2022-07-06T10:04:20;98983.60;;;21.30
68510;BMP180;55512;50.102;19.958;2022-07-06T10:06:47;98980.80;;;21.50
68510;BMP180;55512;50.102;19.958;2022-07-06T10:09:14;98987.60;;;21.62
68510;BMP180;55512;50.102;19.958;2022-07-06T10:11:49;98989.60;;;21.90
68510;BMP180;55512;50.102;19.958;2022-07-06T10:14:20;98984.80;;;22.10
68510;BMP180;55512;50.102;19.958;2022-07-06T10:16:47;98975.40;;;22.30
68510;BMP180;55512;50.102;19.958;2022-07-06T10:19:14;98974.60;;;22.30
68510;BMP180;55512;50.102;19.958;2022-07-06T10:21:41;98973.00;;;22.30
68510;BMP180;55512;50.102;19.958;2022-07-06T10:24:08;98976.80;;;22.30
68510;BMP180;55512;50.102;19.958;2022-07-06T10:26:35;98981.60;;;22.38
68510;BMP180;55512;50.102;19.958;2022-07-06T10:29:04;98980.80;;;22.40
68510;BMP180;55512;50.102;19.958;2022-07-06T10:31:32;98974.80;;;22.50
68510;BMP180;55512;50.102;19.958;2022-07-06T10:34:04;98975.40;;;22.70
68510;BMP180;55512;50.102;19.958;2022-07-06T10:36:36;98972.20;;;22.86
68510;BMP180;55512;50.102;19.958;2022-07-06T10:39:02;98969.60;;;22.96
68510;BMP180;55512;50.102;19.958;2022-07-06T10:41:48;98967.60;;;22.90
68510;BMP180;55512;50.102;19.958;2022-07-06T10:44:22;98967.00;;;22.90
68510;BMP180;55512;50.102;19.958;2022-07-06T10:46:53;98972.80;;;23.00
68510;BMP180;55512;50.102;19.958;2022-07-06T10:49:20;98968.00;;;23.10
68510;BMP180;55512;50.102;19.958;2022-07-06T10:51:47;98966.60;;;23.20
68510;BMP180;55512;50.102;19.958;2022-07-06T10:54:13;98966.20;;;23.36
68510;BMP180;55512;50.102;19.958;2022-07-06T10:56:51;98970.00;;;23.60
68510;BMP180;55512;50.102;19.958;2022-07-06T10:59:23;98968.20;;;23.80
68510;BMP180;55512;50.102;19.958;2022-07-06T11:02:18;98973.60;;;24.00
68510;BMP180;55512;50.102;19.958;2022-07-06T11:04:48;98968.20;;;24.32
68510;BMP180;55512;50.102;19.958;2022-07-06T11:07:17;98967.00;;;24.60
68510;BMP180;55512;50.102;19.958;2022-07-06T11:09:59;98962.80;;;24.68
68510;BMP180;55512;50.102;19.958;2022-07-06T11:12:25;98961.40;;;25.00
68510;BMP180;55512;50.102;19.958;2022-07-06T11:14:52;98957.80;;;25.40
68510;BMP180;55512;50.102;19.958;2022-07-06T11:17:19;98959.40;;;25.80
68510;BMP180;55512;50.102;19.958;2022-07-06T11:19:52;98965.80;;;26.10
68510;BMP180;55512;50.102;19.958;2022-07-06T11:22:20;98960.60;;;26.10
68510;BMP180;55512;50.102;19.958;2022-07-06T11:24:46;98965.20;;;26.20
68510;BMP180;55512;50.102;19.958;2022-07-06T11:27:13;98969.40;;;26.50
68510;BMP180;55512;50.102;19.958;2022-07-06T11:29:40;98974.60;;;26.66
68510;BMP180;55512;50.102;19.958;2022-07-06T11:32:08;98958.80;;;26.62
68510;BMP180;55512;50.102;19.958;2022-07-06T11:34:40;98977.00;;;26.60
68510;BMP180;55512;50.102;19.958;2022-07-06T11:37:12;98990.80;;;26.50
68510;BMP180;55512;50.102;19.958;2022-07-06T11:39:41;98979.00;;;26.50
68510;BMP180;55512;50.102;19.958;2022-07-06T11:42:12;98975.00;;;26.38
68510;BMP180;55512;50.102;19.958;2022-07-06T11:44:39;98980.80;;;26.20
68510;BMP180;55512;50.102;19.958;2022-07-06T11:47:07;98973.00;;;25.92
68510;BMP180;55512;50.102;19.958;2022-07-06T11:49:34;98967.80;;;25.70
68510;BMP180;55512;50.102;19.958;2022-07-06T11:52:09;98979.20;;;25.60
68510;BMP180;55512;50.102;19.958;2022-07-06T11:54:36;98974.20;;;25.50
68510;BMP180;55512;50.102;19.958;2022-07-06T11:57:01;98973.40;;;25.40
68510;BMP180;55512;50.102;19.958;2022-07-06T11:59:38;98970.80;;;25.46
68510;BMP180;55512;50.102;19.958;2022-07-06T12:02:24;98975.40;;;25.60
68510;BMP180;55512;50.102;19.958;2022-07-06T12:04:50;98971.80;;;25.70
68510;BMP180;55512;50.102;19.958;2022-07-06T12:07:17;98968.60;;;25.70
68510;BMP180;55512;50.102;19.958;2022-07-06T12:09:47;98968.40;;;25.90
68510;BMP180;55512;50.102;19.958;2022-07-06T12:12:14;98969.20;;;26.00
68510;BMP180;55512;50.102;19.958;2022-07-06T12:14:41;98966.00;;;25.94
68510;BMP180;55512;50.102;19.958;2022-07-06T12:17:10;98971.80;;;26.10
68510;BMP180;55512;50.102;19.958;2022-07-06T12:19:38;98962.20;;;26.20
68510;BMP180;55512;50.102;19.958;2022-07-06T12:22:05;98955.60;;;26.20
68510;BMP180;55512;50.102;19.958;2022-07-06T12:24:34;98970.20;;;26.30
68510;BMP180;55512;50.102;19.958;2022-07-06T12:27:15;98962.20;;;26.60
68510;BMP180;55512;50.102;19.958;2022-07-06T12:29:42;98965.20;;;26.68
68510;BMP180;55512;50.102;19.958;2022-07-06T12:32:15;98963.80;;;26.78
68510;BMP180;55512;50.102;19.958;2022-07-06T12:34:42;98955.20;;;26.80
68510;BMP180;55512;50.102;19.958;2022-07-06T12:37:10;98956.60;;;26.72
68510;BMP180;55512;50.102;19.958;2022-07-06T12:39:46;98968.20;;;26.50
68510;BMP180;55512;50.102;19.958;2022-07-06T12:42:17;98958.40;;;26.26
68510;BMP180;55512;50.102;19.958;2022-07-06T12:44:50;98956.80;;;26.30
68510;BMP180;55512;50.102;19.958;2022-07-06T12:47:22;98949.00;;;26.40
68510;BMP180;55512;50.102;19.958;2022-07-06T12:50:05;98958.20;;;26.70
68510;BMP180;55512;50.102;19.958;2022-07-06T12:52:31;98976.00;;;26.80
68510;BMP180;55512;50.102;19.958;2022-07-06T12:55:00;98969.20;;;26.80
68510;BMP180;55512;50.102;19.958;2022-07-06T12:57:26;98964.60;;;26.80
68510;BMP180;55512;50.102;19.958;2022-07-06T13:02:35;98969.20;;;27.00
68510;BMP180;55512;50.102;19.958;2022-07-06T13:05:08;98982.80;;;26.82
68510;BMP180;55512;50.102;19.958;2022-07-06T13:07:37;98980.40;;;26.50
68510;BMP180;55512;50.102;19.958;2022-07-06T13:10:07;98989.00;;;26.26
68510;BMP180;55512;50.102;19.958;2022-07-06T13:12:34;98984.80;;;25.80
68510;BMP180;55512;50.102;19.958;2022-07-06T13:14:59;98990.40;;;25.80
68510;BMP180;55512;50.102;19.958;2022-07-06T13:17:25;98976.60;;;25.88
68510;BMP180;55512;50.102;19.958;2022-07-06T13:19:51;98980.40;;;25.70
68510;BMP180;55512;50.102;19.958;2022-07-06T13:22:17;98975.60;;;25.70
68510;BMP180;55512;50.102;19.958;2022-07-06T13:24:43;98982.20;;;25.60
68510;BMP180;55512;50.102;19.958;2022-07-06T13:27:09;98980.00;;;25.40
68510;BMP180;55512;50.102;19.958;2022-07-06T13:29:35;98988.20;;;25.36
68510;BMP180;55512;50.102;19.958;2022-07-06T13:32:02;98987.60;;;25.30
68510;BMP180;55512;50.102;19.958;2022-07-06T13:34:28;98984.00;;;25.30
68510;BMP180;55512;50.102;19.958;2022-07-06T13:36:54;98988.20;;;25.30
68510;BMP180;55512;50.102;19.958;2022-07-06T13:39:20;98993.80;;;25.40
68510;BMP180;55512;50.102;19.958;2022-07-06T13:41:45;98997.00;;;25.50
68510;BMP180;55512;50.102;19.958;2022-07-06T13:44:11;98998.60;;;25.50
68510;BMP180;55512;50.102;19.958;2022-07-06T13:46:38;99000.40;;;25.30
68510;BMP180;55512;50.102;19.958;2022-07-06T13:49:05;99008.00;;;25.30
68510;BMP180;55512;50.102;19.958;2022-07-06T13:51:31;99003.20;;;25.30
68510;BMP180;55512;50.102;19.958;2022-07-06T13:53:59;98995.40;;;25.44
68510;BMP180;55512;50.102;19.958;2022-07-06T13:56:26;98995.60;;;25.82
68510;BMP180;55512;50.102;19.958;2022-07-06T13:58:51;98995.00;;;26.30
68510;BMP180;55512;50.102;19.958;2022-07-06T14:01:17;98998.40;;;26.60
68510;BMP180;55512;50.102;19.958;2022-07-06T14:03:43;98995.40;;;26.30